createdAt,value
2023-11-09T00:00:31.196Z,64.50
2023-11-09T00:02:58.288Z,64.50
2023-11-09T00:05:25.649Z,64.50
2023-11-09T00:07:55.057Z,64.50
2023-11-09T00:10:22.801Z,64.50
2023-11-09T00:12:52.223Z,65.20
2023-11-09T00:15:26.689Z,64.60
2023-11-09T00:17:54.080Z,64.60
2023-11-09T00:20:21.986Z,64.60
2023-11-09T00:22:49.608Z,64.70
2023-11-09T00:25:18.936Z,64.70
2023-11-09T00:27:48.512Z,64.70
2023-11-09T00:30:17.745Z,64.70
2023-11-09T00:32:44.923Z,64.80
2023-11-09T00:35:13.298Z,64.90
2023-11-09T00:37:40.565Z,65.00
2023-11-09T00:40:12.186Z,65.00
2023-11-09T00:42:40.120Z,65.00
2023-11-09T00:45:07.577Z,65.00
2023-11-09T00:47:34.990Z,65.00
2023-11-09T00:50:04.304Z,65.00
2023-11-09T00:52:31.658Z,65.00
2023-11-09T00:55:01.682Z,65.00
2023-11-09T00:57:33.105Z,65.70
2023-11-09T01:00:00.305Z,65.00
2023-11-09T01:02:27.410Z,65.10
2023-11-09T01:04:54.586Z,65.10
2023-11-09T01:07:24.269Z,65.20
2023-11-09T01:09:51.382Z,65.20
2023-11-09T01:12:19.122Z,65.10
2023-11-09T01:14:46.171Z,65.10
2023-11-09T01:17:13.397Z,65.10
2023-11-09T01:19:40.610Z,65.10
2023-11-09T01:22:07.785Z,65.10
2023-11-09T01:24:37.121Z,65.10
2023-11-09T01:27:07.583Z,65.10
2023-11-09T01:29:34.717Z,65.10
2023-11-09T01:32:02.082Z,65.10
2023-11-09T01:34:32.184Z,65.10
2023-11-09T01:36:59.337Z,65.10
2023-11-09T01:39:26.445Z,65.00
2023-11-09T01:41:53.770Z,65.00
2023-11-09T01:44:21.738Z,65.70
2023-11-09T01:46:54.559Z,65.10
2023-11-09T01:49:22.021Z,65.10
2023-11-09T01:51:50.186Z,65.10
2023-11-09T01:54:20.970Z,65.20
2023-11-09T01:56:48.060Z,65.30
2023-11-09T01:59:16.593Z,65.30
2023-11-09T02:01:45.686Z,65.40
2023-11-09T02:04:15.135Z,65.40
2023-11-09T02:06:46.894Z,65.50
2023-11-09T02:09:14.024Z,65.50
2023-11-09T02:11:41.309Z,65.50
2023-11-09T02:14:08.452Z,65.40
2023-11-09T02:16:37.829Z,65.40
2023-11-09T02:19:05.036Z,65.50
2023-11-09T02:21:32.560Z,65.50
2023-11-09T02:24:04.435Z,65.50
2023-11-09T02:26:34.064Z,65.50
2023-11-09T02:29:01.138Z,65.50
2023-11-09T02:31:28.305Z,65.50
2023-11-09T02:33:55.493Z,65.50
2023-11-09T02:36:23.167Z,65.50
2023-11-09T02:38:52.531Z,65.50
2023-11-09T02:41:21.927Z,65.50
2023-11-09T02:43:49.109Z,65.50
2023-11-09T02:46:16.301Z,65.50
2023-11-09T02:48:43.719Z,65.50
2023-11-09T02:51:11.341Z,65.60
2023-11-09T02:53:40.560Z,65.60
2023-11-09T02:56:07.835Z,65.60
2023-11-09T02:58:35.641Z,65.60
2023-11-09T03:01:05.453Z,65.60
2023-11-09T03:03:34.670Z,65.60
2023-11-09T03:06:04.130Z,66.30
2023-11-09T03:08:33.604Z,65.70
2023-11-09T03:11:02.930Z,65.70
2023-11-09T03:13:32.902Z,65.80
2023-11-09T03:15:59.983Z,65.80
2023-11-09T03:18:27.612Z,65.90
2023-11-09T03:20:55.532Z,65.90
2023-11-09T03:23:24.911Z,65.90
2023-11-09T03:25:52.166Z,65.90
2023-11-09T03:28:19.464Z,65.90
2023-11-09T03:30:46.842Z,65.90
2023-11-09T03:33:16.202Z,65.90
2023-11-09T03:35:43.308Z,65.90
2023-11-09T03:38:10.392Z,65.90
2023-11-09T03:40:37.626Z,66.00
2023-11-09T03:43:04.930Z,65.90
2023-11-09T03:45:34.291Z,65.90
2023-11-09T03:48:01.548Z,66.00
2023-11-09T03:50:28.729Z,65.90
2023-11-09T03:52:58.436Z,66.00
2023-11-09T03:55:25.607Z,66.00
2023-11-09T03:57:52.711Z,66.00
2023-11-09T04:00:20.209Z,66.00
2023-11-09T04:02:47.453Z,66.10
2023-11-09T04:05:14.663Z,66.00
2023-11-09T04:07:44.870Z,66.00
2023-11-09T04:10:13.957Z,66.10
2023-11-09T04:12:46.239Z,66.00
2023-11-09T04:15:13.443Z,66.00
2023-11-09T04:17:40.629Z,66.00
2023-11-09T04:20:10.262Z,66.00
2023-11-09T04:22:37.587Z,66.00
2023-11-09T04:25:07.584Z,66.00
2023-11-09T04:27:35.637Z,66.10
2023-11-09T04:30:06.681Z,66.00
2023-11-09T04:32:33.771Z,66.10
2023-11-09T04:35:00.968Z,66.10
2023-11-09T04:37:28.172Z,66.10
2023-11-09T04:39:59.692Z,66.10
2023-11-09T04:42:30.433Z,66.10
2023-11-09T04:45:01.502Z,66.10
2023-11-09T04:47:30.922Z,66.80
2023-11-09T04:50:03.113Z,66.20
2023-11-09T04:52:35.065Z,66.20
2023-11-09T04:55:11.624Z,66.20
2023-11-09T04:58:01.188Z,66.20
2023-11-09T05:00:51.850Z,66.20
2023-11-09T05:03:38.227Z,66.30
2023-11-09T05:06:24.530Z,66.40
2023-11-09T05:08:51.645Z,66.50
2023-11-09T05:11:21.030Z,66.50
2023-11-09T05:13:48.156Z,66.60
2023-11-09T05:16:17.804Z,66.60
2023-11-09T05:18:48.530Z,66.50
2023-11-09T05:21:15.875Z,66.50
2023-11-09T05:23:42.971Z,66.50
2023-11-09T05:26:10.099Z,66.50
2023-11-09T05:28:39.316Z,66.50
2023-11-09T05:31:07.944Z,66.50
2023-11-09T05:33:35.479Z,66.50
2023-11-09T05:36:08.616Z,66.50
2023-11-09T05:38:36.299Z,66.50
2023-11-09T05:41:06.010Z,66.50
2023-11-09T05:43:33.184Z,66.50
2023-11-09T05:46:02.910Z,66.50
2023-11-09T05:48:30.053Z,66.70
2023-11-09T05:50:59.718Z,66.70
2023-11-09T05:53:29.160Z,66.70
2023-11-09T05:55:56.613Z,66.70
2023-11-09T05:58:23.752Z,66.70
2023-11-09T06:00:50.996Z,66.70
2023-11-09T06:03:18.261Z,66.70
2023-11-09T06:05:46.644Z,66.60
2023-11-09T06:08:13.853Z,66.60
2023-11-09T06:10:43.352Z,66.60
2023-11-09T06:13:10.424Z,66.70
2023-11-09T06:15:39.979Z,66.70
2023-11-09T06:18:07.897Z,66.70
2023-11-09T06:20:35.216Z,66.80
2023-11-09T06:23:03.377Z,66.80
2023-11-09T06:25:30.497Z,66.90
2023-11-09T06:27:57.712Z,66.90
2023-11-09T06:30:28.369Z,66.90
2023-11-09T06:32:55.540Z,67.00
2023-11-09T06:35:22.703Z,67.10
2023-11-09T06:37:51.905Z,67.10
2023-11-09T06:40:19.195Z,67.10
2023-11-09T06:42:48.334Z,67.20
2023-11-09T06:45:15.460Z,67.20
2023-11-09T06:47:43.183Z,67.20
2023-11-09T06:50:20.437Z,67.20
2023-11-09T06:52:48.204Z,67.30
2023-11-09T06:55:16.848Z,67.30
2023-11-09T06:57:47.630Z,67.40
2023-11-09T07:00:14.871Z,67.50
2023-11-09T07:02:42.532Z,67.40
2023-11-09T07:05:09.856Z,67.50
2023-11-09T07:07:39.652Z,67.60
2023-11-09T07:10:08.746Z,67.60
2023-11-09T07:12:36.705Z,67.60
2023-11-09T07:15:06.497Z,68.30
2023-11-09T07:17:34.017Z,67.80
2023-11-09T07:20:01.369Z,67.80
2023-11-09T07:22:29.357Z,67.90
2023-11-09T07:25:10.479Z,68.00
2023-11-09T07:27:40.507Z,68.10
2023-11-09T07:30:08.182Z,68.10
2023-11-09T07:32:36.237Z,68.20
2023-11-09T07:35:03.467Z,68.30
2023-11-09T07:37:32.905Z,68.30
2023-11-09T07:40:00.282Z,68.30
2023-11-09T07:42:28.257Z,68.40
2023-11-09T07:44:55.644Z,68.40
2023-11-09T07:47:22.749Z,68.50
2023-11-09T07:49:51.902Z,68.50
2023-11-09T07:52:21.152Z,68.60
2023-11-09T07:54:49.934Z,68.60
2023-11-09T07:57:17.129Z,68.60
2023-11-09T07:59:46.396Z,68.60
2023-11-09T08:02:16.376Z,68.60
2023-11-09T08:04:43.704Z,68.80
2023-11-09T08:07:10.846Z,68.80
2023-11-09T08:09:38.334Z,68.90
2023-11-09T08:12:06.357Z,69.00
2023-11-09T08:14:33.595Z,69.00
2023-11-09T08:17:03.197Z,69.00
2023-11-09T08:19:30.361Z,69.10
2023-11-09T08:21:57.763Z,69.20
2023-11-09T08:24:27.440Z,69.20
2023-11-09T08:26:54.539Z,69.20
2023-11-09T08:29:21.687Z,69.20
2023-11-09T08:31:48.985Z,69.20
2023-11-09T08:34:17.355Z,69.10
2023-11-09T08:36:49.145Z,69.20
2023-11-09T08:39:20.431Z,69.10
2023-11-09T08:41:48.592Z,69.10
2023-11-09T08:44:22.032Z,69.10
2023-11-09T08:46:49.226Z,69.20
2023-11-09T08:49:16.399Z,69.30
2023-11-09T08:51:44.826Z,69.40
2023-11-09T08:54:11.895Z,69.50
2023-11-09T08:56:39.299Z,69.60
2023-11-09T08:59:09.300Z,69.70
2023-11-09T09:01:36.414Z,69.80
2023-11-09T09:04:04.756Z,69.90
2023-11-09T09:06:35.130Z,69.90
2023-11-09T09:09:02.347Z,69.90
2023-11-09T09:11:31.961Z,69.90
2023-11-09T09:13:59.039Z,69.90
2023-11-09T09:16:29.711Z,69.90
2023-11-09T09:18:57.545Z,69.90
2023-11-09T09:21:26.980Z,70.00
2023-11-09T09:23:57.693Z,69.90
2023-11-09T09:26:24.764Z,69.90
2023-11-09T09:28:52.704Z,69.90
2023-11-09T09:31:20.646Z,70.00
2023-11-09T09:34:10.623Z,70.00
2023-11-09T09:36:38.194Z,70.00
2023-11-09T09:39:05.460Z,70.10
2023-11-09T09:41:38.820Z,70.10
2023-11-09T09:44:07.894Z,70.20
2023-11-09T09:46:36.996Z,70.30
2023-11-09T09:49:05.172Z,70.30
2023-11-09T09:51:35.353Z,70.30
2023-11-09T09:54:03.209Z,70.40
2023-11-09T09:56:30.849Z,70.40
2023-11-09T09:58:57.994Z,70.50
2023-11-09T10:01:26.572Z,70.50
2023-11-09T10:03:54.642Z,70.60
2023-11-09T10:06:22.959Z,70.70
2023-11-09T10:08:52.498Z,70.80
2023-11-09T10:11:19.682Z,70.80
2023-11-09T10:13:49.160Z,70.80
2023-11-09T10:16:16.481Z,70.80
2023-11-09T10:18:43.660Z,70.80
2023-11-09T10:21:13.882Z,70.80
2023-11-09T10:23:41.652Z,70.90
2023-11-09T10:26:12.972Z,70.90
2023-11-09T10:28:40.478Z,70.80
2023-11-09T10:31:09.008Z,70.90
2023-11-09T10:33:37.012Z,70.80
2023-11-09T10:36:07.034Z,70.80
2023-11-09T10:38:37.534Z,70.80
2023-11-09T10:41:16.326Z,70.60
2023-11-09T10:43:54.704Z,70.50
2023-11-09T10:46:22.040Z,70.50
2023-11-09T10:48:51.700Z,70.50
2023-11-09T10:51:21.715Z,70.60
2023-11-09T10:53:49.517Z,70.60
2023-11-09T10:56:17.308Z,70.70
2023-11-09T10:58:46.565Z,70.80
2023-11-09T11:01:18.868Z,70.80
2023-11-09T11:03:52.555Z,70.80
2023-11-09T11:06:24.915Z,70.80
2023-11-09T11:08:57.922Z,70.70
2023-11-09T11:11:29.995Z,70.60
2023-11-09T11:13:59.492Z,70.50
2023-11-09T11:16:37.161Z,70.50
2023-11-09T11:19:07.767Z,70.50
2023-11-09T11:21:46.704Z,70.50
2023-11-09T11:24:28.933Z,70.30
2023-11-09T11:27:18.825Z,70.00
2023-11-09T11:29:51.396Z,69.90
2023-11-09T11:32:34.812Z,69.70
2023-11-09T11:35:04.555Z,69.60
2023-11-09T11:37:33.090Z,69.40
2023-11-09T11:40:11.096Z,69.50
2023-11-09T11:42:41.378Z,69.40
2023-11-09T11:45:08.998Z,69.40
2023-11-09T11:47:36.195Z,69.30
2023-11-09T11:50:09.909Z,69.30
2023-11-09T11:52:37.155Z,69.10
2023-11-09T11:55:05.163Z,68.90
2023-11-09T11:57:54.869Z,68.80
2023-11-09T12:00:37.281Z,68.70
2023-11-09T12:03:05.398Z,68.60
2023-11-09T12:05:32.637Z,68.50
2023-11-09T12:08:02.698Z,68.40
2023-11-09T12:10:30.405Z,68.30
2023-11-09T12:12:59.143Z,68.20
2023-11-09T12:15:31.563Z,68.10
2023-11-09T12:17:58.740Z,68.10
2023-11-09T12:20:26.959Z,68.00
2023-11-09T12:22:56.380Z,67.80
2023-11-09T12:25:27.625Z,67.80
2023-11-09T12:27:57.144Z,67.80
2023-11-09T12:30:24.617Z,67.80
2023-11-09T12:32:54.866Z,67.80
2023-11-09T12:35:22.150Z,68.30
2023-11-09T12:38:00.828Z,67.40
2023-11-09T12:40:30.034Z,67.30
2023-11-09T12:42:59.955Z,67.10
2023-11-09T12:45:27.117Z,67.10
2023-11-09T12:47:56.774Z,66.70
2023-11-09T12:50:25.508Z,66.30
2023-11-09T12:52:55.726Z,66.10
2023-11-09T12:55:24.474Z,66.00
2023-11-09T12:57:51.688Z,66.00
2023-11-09T13:00:24.433Z,65.90
2023-11-09T13:02:58.133Z,66.00
2023-11-09T13:05:33.009Z,65.80
2023-11-09T13:08:08.730Z,65.80
2023-11-09T13:10:39.450Z,65.80
2023-11-09T13:13:22.044Z,66.40
2023-11-09T13:15:51.620Z,65.70
2023-11-09T13:18:28.515Z,65.70
2023-11-09T13:20:56.120Z,65.70
2023-11-09T13:23:40.405Z,65.80
2023-11-09T13:26:09.732Z,65.80
2023-11-09T13:28:36.979Z,65.80
2023-11-09T13:31:14.168Z,65.70
2023-11-09T13:33:46.298Z,65.70
2023-11-09T13:36:17.072Z,65.60
2023-11-09T13:39:12.974Z,65.60
2023-11-09T13:41:43.446Z,65.60
2023-11-09T13:44:12.920Z,65.50
2023-11-09T13:46:42.670Z,65.60
2023-11-09T13:49:20.488Z,65.70
2023-11-09T13:52:11.928Z,65.80
2023-11-09T13:54:55.335Z,65.80
2023-11-09T13:57:25.703Z,65.80
2023-11-09T13:59:57.059Z,65.90
2023-11-09T14:02:28.883Z,65.80
2023-11-09T14:05:08.588Z,65.80
2023-11-09T14:07:43.745Z,65.80
2023-11-09T14:10:22.089Z,65.70
2023-11-09T14:12:53.334Z,65.60
2023-11-09T14:15:25.761Z,65.60
2023-11-09T14:17:57.268Z,65.50
2023-11-09T14:20:42.973Z,65.40
2023-11-09T14:23:10.179Z,65.30
2023-11-09T14:25:39.986Z,65.10
2023-11-09T14:28:07.457Z,65.00
2023-11-09T14:30:34.778Z,64.90
2023-11-09T14:33:05.318Z,64.90
2023-11-09T14:35:34.018Z,64.90
2023-11-09T14:38:08.960Z,64.80
2023-11-09T14:40:44.581Z,64.90
2023-11-09T14:43:14.910Z,64.90
2023-11-09T14:45:43.700Z,64.90
2023-11-09T14:48:14.399Z,65.00
2023-11-09T14:50:42.853Z,65.10
2023-11-09T14:53:10.235Z,65.10
2023-11-09T14:55:38.947Z,65.10
2023-11-09T14:58:15.925Z,65.10
2023-11-09T15:00:46.695Z,65.10
2023-11-09T15:03:20.527Z,65.10
2023-11-09T15:05:54.361Z,65.10
2023-11-09T15:08:27.787Z,65.00
2023-11-09T15:10:58.001Z,64.90
2023-11-09T15:13:29.330Z,64.90
2023-11-09T15:16:03.708Z,64.90
2023-11-09T15:18:35.033Z,64.90
2023-11-09T15:21:03.643Z,65.00
2023-11-09T15:23:33.998Z,64.90
2023-11-09T15:26:01.386Z,64.90
2023-11-09T15:28:31.918Z,64.90
2023-11-09T15:30:59.423Z,65.00
2023-11-09T15:33:26.533Z,65.00
2023-11-09T15:35:55.851Z,64.80
2023-11-09T15:38:25.759Z,64.90
2023-11-09T15:41:17.069Z,64.90
2023-11-09T15:43:42.496Z,64.80
2023-11-09T15:46:13.848Z,64.90
2023-11-09T15:51:35.325Z,64.90
2023-11-09T15:54:02.436Z,64.90
2023-11-09T15:56:30.476Z,65.00
2023-11-09T15:59:00.703Z,65.10
2023-11-09T16:01:28.114Z,65.10
2023-11-09T16:03:58.766Z,65.10
2023-11-09T16:06:26.350Z,65.20
2023-11-09T16:08:53.477Z,65.20
2023-11-09T16:11:21.846Z,65.30
2023-11-09T16:13:51.188Z,65.30
2023-11-09T16:16:20.527Z,65.30
2023-11-09T16:18:48.225Z,65.30
2023-11-09T16:21:15.780Z,65.20
2023-11-09T16:23:43.002Z,65.20
2023-11-09T16:26:10.646Z,65.30
2023-11-09T16:28:45.195Z,65.30
2023-11-09T16:31:13.646Z,65.30
2023-11-09T16:33:41.197Z,65.40
2023-11-09T16:36:08.606Z,65.40
2023-11-09T16:38:35.803Z,65.50
2023-11-09T16:41:03.035Z,65.50
2023-11-09T16:43:32.978Z,65.50
2023-11-09T16:46:00.888Z,65.50
2023-11-09T16:48:29.461Z,65.50
2023-11-09T16:50:57.355Z,65.50
2023-11-09T16:53:24.452Z,65.40
2023-11-09T16:55:53.301Z,65.40
2023-11-09T16:58:20.503Z,65.90
2023-11-09T17:00:49.856Z,65.50
2023-11-09T17:03:17.054Z,65.50
2023-11-09T17:05:46.791Z,65.50
2023-11-09T17:08:13.930Z,65.60
2023-11-09T17:10:43.369Z,65.50
2023-11-09T17:13:11.059Z,65.50
2023-11-09T17:15:38.176Z,65.50
2023-11-09T17:18:08.714Z,65.60
2023-11-09T17:20:37.842Z,65.50
2023-11-09T17:23:09.656Z,65.60
2023-11-09T17:25:36.805Z,65.60
2023-11-09T17:28:06.591Z,65.60
2023-11-09T17:30:37.965Z,65.60
2023-11-09T17:33:07.512Z,65.50
2023-11-09T17:35:37.361Z,65.50
2023-11-09T17:38:04.761Z,65.50
2023-11-09T17:40:32.025Z,65.50
2023-11-09T17:42:59.223Z,65.50
2023-11-09T17:45:26.509Z,65.60
2023-11-09T17:47:54.827Z,65.60
2023-11-09T17:50:22.871Z,65.60
2023-11-09T17:52:53.124Z,65.70
2023-11-09T17:55:21.068Z,65.70
2023-11-09T17:57:48.693Z,65.70
2023-11-09T18:00:17.204Z,65.70
2023-11-09T18:02:46.423Z,65.80
2023-11-09T18:05:14.261Z,65.80
2023-11-09T18:07:41.714Z,65.80
2023-11-09T18:10:09.076Z,65.80
2023-11-09T18:12:37.101Z,65.80
2023-11-09T18:15:06.306Z,65.80
2023-11-09T18:17:35.832Z,65.80
2023-11-09T18:20:13.317Z,65.80
2023-11-09T18:22:42.160Z,65.80
2023-11-09T18:25:12.273Z,65.80
2023-11-09T18:27:40.479Z,65.90
2023-11-09T18:30:23.538Z,66.00
2023-11-09T18:32:50.935Z,65.90
2023-11-09T18:35:19.607Z,66.00
2023-11-09T18:37:56.518Z,66.00
2023-11-09T18:40:28.505Z,66.00
2023-11-09T18:43:00.281Z,66.00
2023-11-09T18:45:27.430Z,66.00
2023-11-09T18:47:55.156Z,66.10
2023-11-09T18:52:55.405Z,66.10
2023-11-09T18:55:23.122Z,66.30
2023-11-09T18:57:50.286Z,66.20
2023-11-09T19:00:17.748Z,66.20
2023-11-09T19:05:28.871Z,66.10
2023-11-09T19:07:56.217Z,66.10
2023-11-09T19:10:23.374Z,66.10
2023-11-09T19:12:52.913Z,66.20
2023-11-09T19:15:24.212Z,66.20
2023-11-09T19:17:53.291Z,66.30
2023-11-09T19:22:26.503Z,66.40
2023-11-09T19:23:09.311Z,66.40
2023-11-09T19:25:38.706Z,66.40
2023-11-09T19:28:10.194Z,66.50
2023-11-09T19:31:13.459Z,66.60
2023-11-09T19:34:06.029Z,66.70
2023-11-09T19:46:16.970Z,67.00
2023-11-09T19:49:04.011Z,67.10
2023-11-09T19:55:29.052Z,67.20
2023-11-09T19:58:25.641Z,67.30
2023-11-09T20:01:15.795Z,67.30
2023-11-09T20:04:30.191Z,67.30
2023-11-09T20:10:35.928Z,67.30
2023-11-09T20:13:25.989Z,67.40
2023-11-09T20:19:07.429Z,68.00
2023-11-09T20:22:10.596Z,67.50
2023-11-09T20:36:51.668Z,67.70
2023-11-09T20:39:36.699Z,67.70
2023-11-09T20:42:22.873Z,67.80
2023-11-09T20:45:00.081Z,67.80
2023-11-09T20:47:52.856Z,67.80
2023-11-09T20:57:22.040Z,67.70
2023-11-09T20:59:51.204Z,67.70
2023-11-09T21:02:20.784Z,67.70
2023-11-09T21:04:50.805Z,67.70
2023-11-09T21:07:20.543Z,67.70
2023-11-09T21:09:47.762Z,67.70
2023-11-09T21:12:19.574Z,67.70
2023-11-09T21:14:49.948Z,67.80
2023-11-09T21:17:17.267Z,67.80
2023-11-09T21:19:44.424Z,67.90
2023-11-09T21:22:14.083Z,67.90
2023-11-09T21:24:43.813Z,67.90
2023-11-09T21:27:13.563Z,68.00
2023-11-09T21:29:41.261Z,68.00
2023-11-09T21:32:11.895Z,68.10
2023-11-09T21:34:41.922Z,68.10
2023-11-09T21:37:09.427Z,68.10
2023-11-09T21:39:39.495Z,68.10
2023-11-09T21:42:12.784Z,68.20
2023-11-09T21:44:41.240Z,68.10
2023-11-09T21:47:13.018Z,68.10
2023-11-09T21:49:41.939Z,68.20
2023-11-09T21:52:09.053Z,68.20
2023-11-09T21:54:36.236Z,68.20
2023-11-09T21:57:03.439Z,68.20
2023-11-09T21:59:32.579Z,68.20
2023-11-09T22:01:59.676Z,68.20
2023-11-09T22:04:26.868Z,68.20
2023-11-09T22:06:54.461Z,68.30
2023-11-09T22:09:23.870Z,68.20
2023-11-09T22:11:51.601Z,68.30
2023-11-09T22:14:20.950Z,68.30
2023-11-09T22:16:48.198Z,68.30
2023-11-09T22:19:15.337Z,68.40
2023-11-09T22:21:42.471Z,68.30
2023-11-09T22:24:11.680Z,68.40
2023-11-09T22:26:40.178Z,68.40
2023-11-09T22:29:07.814Z,68.40
2023-11-09T22:31:39.152Z,68.50
2023-11-09T22:34:11.024Z,68.50
2023-11-09T22:36:38.880Z,68.50
2023-11-09T22:39:07.090Z,68.60
2023-11-09T22:41:34.263Z,68.70
2023-11-09T22:44:03.460Z,68.70
2023-11-09T22:46:30.563Z,68.80
2023-11-09T22:48:57.670Z,68.80
2023-11-09T22:51:24.828Z,68.90
2023-11-09T22:53:51.982Z,68.90
2023-11-09T22:56:19.157Z,69.00
2023-11-09T22:58:48.738Z,69.00
2023-11-09T23:01:24.720Z,69.30
2023-11-09T23:03:54.432Z,69.00
2023-11-09T23:06:25.160Z,69.10
2023-11-09T23:08:52.551Z,69.10
2023-11-09T23:11:22.118Z,69.10
2023-11-09T23:13:49.239Z,69.20
2023-11-09T23:16:17.783Z,69.20
2023-11-09T23:18:44.984Z,69.20
2023-11-09T23:21:12.113Z,69.20
2023-11-09T23:23:39.219Z,69.30
2023-11-09T23:26:06.333Z,69.30
2023-11-09T23:28:33.469Z,69.30
2023-11-09T23:31:00.566Z,69.30
2023-11-09T23:33:27.734Z,69.30
2023-11-09T23:35:54.820Z,69.30
2023-11-09T23:38:24.780Z,69.40
2023-11-09T23:40:52.239Z,69.40
2023-11-09T23:43:19.884Z,69.40
2023-11-09T23:45:47.115Z,69.40
2023-11-09T23:48:14.535Z,69.40
2023-11-09T23:50:41.952Z,69.50
2023-11-09T23:53:09.346Z,69.40
2023-11-09T23:55:36.491Z,69.40
2023-11-09T23:58:05.884Z,69.50
